Time;durP1;ratioP1;P1;durP2;ratioP2;P2;SDS_P1;SDS_P2;PMS_P1;PMS_P2;Temp;Humidity;BMP_temperature;BMP_pressure;BME280_temperature;BME280_humidity;BME280_pressure;Samples;Min_cycle;Max_cycle;Signal;HPM_P1;HPM_P2
2024/01/03 00:01:29;;;;;;;14.45;1.50;;;;;;;;;;4977002;28;20068;-50
2024/01/03 00:03:58;;;;;;;17.60;2.00;;;;;;;;;;4969466;28;20046;-56
2024/01/03 00:06:29;;;;;;;13.00;1.30;;;;;;;;;;4979733;28;20560;-55
2024/01/03 00:08:57;;;;;;;17.73;2.05;;;;;;;;;;4971105;28;20042;-53
2024/01/03 00:11:28;;;;;;;22.40;2.08;;;;;;;;;;4978573;28;20044;-55
2024/01/03 00:14:05;;;;;;;16.10;1.67;;;;;;;;;;4982079;28;20046;-52
2024/01/03 00:16:36;;;;;;;21.00;1.93;;;;;;;;;;4963941;28;20042;-54
2024/01/03 00:19:05;;;;;;;16.30;2.20;;;;;;;;;;4981434;28;20046;-54
2024/01/03 00:21:34;;;;;;;18.20;2.15;;;;;;;;;;4974984;28;20762;-56
2024/01/03 00:24:04;;;;;;;20.27;1.92;;;;;;;;;;4979573;28;20402;-54
2024/01/03 00:26:34;;;;;;;20.13;1.42;;;;;;;;;;4966813;28;20042;-56
2024/01/03 00:29:02;;;;;;;19.60;2.20;;;;;;;;;;4992877;28;20139;-56
2024/01/03 00:31:37;;;;;;;16.38;1.30;;;;;;;;;;4966943;28;20049;-56
2024/01/03 00:34:11;;;;;;;18.10;1.33;;;;;;;;;;4882140;28;20049;-56
2024/01/03 00:36:39;;;;;;;20.05;1.95;;;;;;;;;;4985159;28;20045;-56
2024/01/03 00:39:08;;;;;;;15.57;1.70;;;;;;;;;;4971640;28;20053;-56
2024/01/03 00:41:36;;;;;;;25.87;2.10;;;;;;;;;;4982564;28;20042;-57
2024/01/03 00:44:04;;;;;;;17.17;1.60;;;;;;;;;;4965338;28;20042;-56
2024/01/03 00:46:32;;;;;;;22.38;1.98;;;;;;;;;;4981231;28;20563;-56
2024/01/03 00:49:01;;;;;;;21.58;2.65;;;;;;;;;;4971960;28;20681;-56
2024/01/03 00:51:29;;;;;;;19.55;1.63;;;;;;;;;;4985046;28;20133;-54
2024/01/03 00:53:56;;;;;;;16.80;1.27;;;;;;;;;;4964722;28;20037;-56
2024/01/03 00:56:24;;;;;;;18.92;1.70;;;;;;;;;;4987933;28;20534;-56
2024/01/03 00:58:52;;;;;;;22.08;1.73;;;;;;;;;;4964244;28;20042;-57
2024/01/03 01:01:20;;;;;;;13.95;0.95;;;;;;;;;;4985437;28;20048;-56
2024/01/03 01:03:48;;;;;;;17.98;1.67;;;;;;;;;;4965812;28;20859;-57
2024/01/03 01:06:17;;;;;;;17.27;1.73;;;;;;;;;;4981492;28;20061;-53
2024/01/03 01:08:45;;;;;;;17.80;1.25;;;;;;;;;;4975191;28;20070;-54
2024/01/03 01:11:13;;;;;;;10.85;1.45;;;;;;;;;;4983628;28;20300;-55
2024/01/03 01:13:59;;;;;;;15.10;1.40;;;;;;;;;;4987293;28;20492;-56
2024/01/03 01:16:27;;;;;;;10.55;1.25;;;;;;;;;;4968631;28;20042;-55
2024/01/03 01:18:54;;;;;;;16.07;1.50;;;;;;;;;;4980143;28;20037;-55
2024/01/03 01:21:24;;;;;;;12.20;0.82;;;;;;;;;;4969962;28;20041;-52
2024/01/03 01:23:51;;;;;;;11.20;1.20;;;;;;;;;;4974763;28;20050;-55
2024/01/03 01:26:19;;;;;;;17.25;1.00;;;;;;;;;;4978978;28;20052;-52
2024/01/03 01:28:47;;;;;;;13.18;2.15;;;;;;;;;;4995472;28;20048;-54
2024/01/03 01:31:14;;;;;;;13.97;1.73;;;;;;;;;;4969999;28;20038;-51
2024/01/03 01:33:45;;;;;;;12.05;0.80;;;;;;;;;;4882797;28;20052;-57
2024/01/03 01:36:14;;;;;;;11.13;1.27;;;;;;;;;;4960159;28;20053;-54
2024/01/03 01:38:44;;;;;;;19.23;1.08;;;;;;;;;;4974823;28;20042;-56
2024/01/03 01:41:12;;;;;;;13.65;1.40;;;;;;;;;;4971481;28;20638;-55
2024/01/03 01:43:40;;;;;;;12.47;1.10;;;;;;;;;;4984708;28;20113;-54
2024/01/03 01:46:08;;;;;;;16.98;1.20;;;;;;;;;;4967390;28;20042;-54
2024/01/03 01:48:35;;;;;;;15.55;1.10;;;;;;;;;;4984000;28;20038;-56
2024/01/03 01:51:04;;;;;;;17.13;1.42;;;;;;;;;;4966338;28;20050;-54
2024/01/03 01:53:32;;;;;;;13.70;1.48;;;;;;;;;;4998091;28;20054;-55
2024/01/03 01:56:02;;;;;;;17.30;1.20;;;;;;;;;;4973064;28;20702;-55
2024/01/03 01:58:30;;;;;;;13.45;1.30;;;;;;;;;;4983220;28;20061;-56
2024/01/03 02:00:58;;;;;;;13.85;1.58;;;;;;;;;;4973627;28;20465;-55
2024/01/03 02:03:26;;;;;;;13.38;1.05;;;;;;;;;;4990925;28;20119;-55
2024/01/03 02:05:56;;;;;;;8.55;0.90;;;;;;;;;;4983001;28;20137;-52
2024/01/03 02:08:25;;;;;;;13.63;1.93;;;;;;;;;;4968914;28;20515;-54
2024/01/03 02:10:52;;;;;;;21.30;1.30;;;;;;;;;;4985163;28;20140;-53
2024/01/03 02:13:21;;;;;;;17.95;1.48;;;;;;;;;;4973488;28;20053;-55
2024/01/03 02:15:49;;;;;;;13.40;1.35;;;;;;;;;;4981426;28;20041;-53
2024/01/03 02:18:17;;;;;;;12.13;1.27;;;;;;;;;;4969158;28;20890;-53
2024/01/03 02:20:45;;;;;;;18.47;1.60;;;;;;;;;;4978348;28;20048;-52
2024/01/03 02:23:15;;;;;;;14.45;1.35;;;;;;;;;;4948571;28;20073;-55
2024/01/03 02:25:42;;;;;;;15.75;1.73;;;;;;;;;;4970130;28;20441;-55
2024/01/03 02:28:10;;;;;;;9.45;1.17;;;;;;;;;;4979894;28;20044;-53
2024/01/03 02:30:41;;;;;;;9.88;1.20;;;;;;;;;;4976622;28;20041;-55
2024/01/03 02:33:09;;;;;;;10.53;1.13;;;;;;;;;;4913887;28;20424;-53
2024/01/03 02:35:37;;;;;;;12.23;1.20;;;;;;;;;;4920196;28;21088;-53
2024/01/03 02:38:05;;;;;;;19.25;1.42;;;;;;;;;;4962452;28;20308;-52
2024/01/03 02:40:34;;;;;;;13.63;1.40;;;;;;;;;;4979341;28;20248;-53
2024/01/03 02:43:02;;;;;;;17.02;1.65;;;;;;;;;;4940362;28;20045;-55
2024/01/03 02:45:30;;;;;;;11.57;1.30;;;;;;;;;;4978843;28;20524;-55
2024/01/03 02:47:57;;;;;;;12.70;1.25;;;;;;;;;;4973735;28;20038;-53
2024/01/03 02:50:25;;;;;;;13.70;1.38;;;;;;;;;;4953885;28;20048;-53
2024/01/03 02:52:53;;;;;;;17.67;1.92;;;;;;;;;;4991082;28;20125;-55
2024/01/03 02:55:21;;;;;;;18.40;1.95;;;;;;;;;;4972552;28;20053;-51
2024/01/03 02:57:50;;;;;;;15.97;2.20;;;;;;;;;;4979383;28;20077;-48
2024/01/03 03:00:18;;;;;;;13.60;1.58;;;;;;;;;;4972418;28;20045;-49
2024/01/03 03:02:46;;;;;;;16.85;1.45;;;;;;;;;;4981157;28;20038;-51
2024/01/03 03:05:17;;;;;;;14.98;1.63;;;;;;;;;;4960959;28;20121;-56
2024/01/03 03:07:46;;;;;;;15.35;2.17;;;;;;;;;;4973720;28;20036;-53
2024/01/03 03:10:14;;;;;;;12.70;1.37;;;;;;;;;;4980415;28;20053;-53
2024/01/03 03:12:41;;;;;;;11.90;1.73;;;;;;;;;;4974412;28;20038;-50
2024/01/03 03:15:11;;;;;;;10.85;1.30;;;;;;;;;;4981634;28;20512;-54
2024/01/03 03:17:40;;;;;;;9.43;1.27;;;;;;;;;;4940701;28;20042;-54
2024/01/03 03:20:09;;;;;;;18.63;1.70;;;;;;;;;;4979057;28;20085;-49
2024/01/03 03:22:38;;;;;;;17.50;1.90;;;;;;;;;;4981840;28;20417;-56
2024/01/03 03:25:07;;;;;;;13.73;1.10;;;;;;;;;;4977805;28;20046;-55
2024/01/03 03:27:35;;;;;;;10.77;1.00;;;;;;;;;;4983992;28;20050;-49
2024/01/03 03:30:03;;;;;;;13.55;1.35;;;;;;;;;;4965293;28;20053;-54
2024/01/03 03:32:33;;;;;;;16.20;1.52;;;;;;;;;;4929668;28;20107;-55
2024/01/03 03:35:01;;;;;;;13.20;1.33;;;;;;;;;;4920567;28;21077;-54
2024/01/03 03:37:29;;;;;;;10.25;0.55;;;;;;;;;;4982436;28;20049;-53
2024/01/03 03:39:57;;;;;;;12.10;2.15;;;;;;;;;;4971847;28;20505;-52
2024/01/03 03:42:25;;;;;;;8.90;0.93;;;;;;;;;;4993669;28;20048;-53
2024/01/03 03:44:56;;;;;;;11.75;1.58;;;;;;;;;;4982058;28;20041;-54
2024/01/03 03:47:24;;;;;;;7.43;0.57;;;;;;;;;;4973251;28;20038;-53
2024/01/03 03:49:53;;;;;;;8.43;0.80;;;;;;;;;;4969534;28;20060;-55
2024/01/03 03:52:21;;;;;;;11.88;0.70;;;;;;;;;;4982067;28;20041;-49
2024/01/03 03:54:48;;;;;;;14.35;0.75;;;;;;;;;;4977260;28;20057;-54
2024/01/03 03:57:16;;;;;;;10.27;1.20;;;;;;;;;;4973274;28;20551;-51
2024/01/03 03:59:44;;;;;;;9.73;1.17;;;;;;;;;;4966322;28;20046;-55
2024/01/03 04:02:12;;;;;;;6.25;0.65;;;;;;;;;;4978284;28;20062;-52
2024/01/03 04:04:40;;;;;;;7.70;0.65;;;;;;;;;;4946177;28;20050;-54
2024/01/03 04:07:11;;;;;;;6.05;0.55;;;;;;;;;;4967610;28;20038;-56
2024/01/03 04:09:43;;;;;;;11.90;1.15;;;;;;;;;;4977996;28;20799;-56
2024/01/03 04:12:11;;;;;;;10.07;0.90;;;;;;;;;;4964450;28;20302;-56
2024/01/03 04:14:39;;;;;;;9.95;0.43;;;;;;;;;;4967692;28;20041;-56
2024/01/03 04:17:07;;;;;;;9.98;0.70;;;;;;;;;;4968436;28;20042;-56
2024/01/03 04:19:35;;;;;;;12.85;1.27;;;;;;;;;;4977436;28;20093;-56
2024/01/03 04:22:02;;;;;;;14.15;1.40;;;;;;;;;;4971772;28;20508;-56
2024/01/03 04:24:31;;;;;;;8.97;0.53;;;;;;;;;;4980770;28;20705;-56
2024/01/03 04:26:59;;;;;;;9.25;1.10;;;;;;;;;;4972514;28;20119;-55
2024/01/03 04:29:27;;;;;;;8.32;0.75;;;;;;;;;;4962132;28;20087;-51
2024/01/03 04:31:55;;;;;;;9.57;0.57;;;;;;;;;;4970117;28;20045;-56
2024/01/03 04:34:22;;;;;;;11.48;1.67;;;;;;;;;;4886300;28;20160;-52
2024/01/03 04:36:50;;;;;;;8.87;1.17;;;;;;;;;;4975559;28;20040;-51
2024/01/03 04:39:19;;;;;;;13.77;1.00;;;;;;;;;;4971675;28;20053;-55
2024/01/03 04:41:48;;;;;;;14.15;1.20;;;;;;;;;;4975372;28;20038;-49
2024/01/03 04:44:16;;;;;;;8.68;0.70;;;;;;;;;;4906937;28;20092;-53
2024/01/03 04:46:44;;;;;;;10.10;1.02;;;;;;;;;;4940872;28;20488;-51
2024/01/03 04:49:12;;;;;;;9.87;0.50;;;;;;;;;;4952855;28;20547;-55
2024/01/03 04:51:41;;;;;;;15.52;1.15;;;;;;;;;;4983254;28;20041;-54
2024/01/03 04:54:08;;;;;;;11.63;0.85;;;;;;;;;;4964182;28;20049;-52
2024/01/03 04:56:36;;;;;;;5.10;0.77;;;;;;;;;;4979570;28;20108;-54
2024/01/03 04:59:06;;;;;;;10.38;0.90;;;;;;;;;;4970989;28;20054;-56
2024/01/03 05:01:33;;;;;;;10.43;0.80;;;;;;;;;;4982737;28;20039;-56
2024/01/03 05:04:01;;;;;;;10.73;0.95;;;;;;;;;;4971987;28;20041;-53
2024/01/03 05:06:29;;;;;;;11.55;1.42;;;;;;;;;;4978451;28;20056;-54
2024/01/03 05:08:57;;;;;;;11.15;1.35;;;;;;;;;;4974050;28;20519;-52
2024/01/03 05:11:24;;;;;;;13.30;1.15;;;;;;;;;;4988582;28;20049;-56
2024/01/03 05:13:52;;;;;;;8.63;0.90;;;;;;;;;;4980688;28;20038;-53
2024/01/03 05:16:21;;;;;;;14.93;1.10;;;;;;;;;;4983543;28;20038;-52
2024/01/03 05:18:50;;;;;;;11.27;1.45;;;;;;;;;;4965136;28;20034;-52
2024/01/03 05:21:18;;;;;;;12.27;1.10;;;;;;;;;;4991103;28;20460;-50
2024/01/03 05:23:49;;;;;;;8.20;1.25;;;;;;;;;;4960665;28;20044;-55
2024/01/03 05:26:17;;;;;;;8.90;1.00;;;;;;;;;;4969594;28;20045;-55
2024/01/03 05:28:45;;;;;;;17.02;1.15;;;;;;;;;;4974123;28;20041;-54
2024/01/03 05:31:13;;;;;;;16.13;1.85;;;;;;;;;;4977128;28;20523;-52
2024/01/03 05:33:46;;;;;;;19.55;1.60;;;;;;;;;;4897757;28;20566;-54
2024/01/03 05:36:14;;;;;;;11.35;1.10;;;;;;;;;;4978443;28;20046;-53
2024/01/03 05:38:42;;;;;;;14.50;1.20;;;;;;;;;;4974662;28;20124;-56
2024/01/03 05:41:09;;;;;;;13.65;1.30;;;;;;;;;;4978714;28;20052;-52
2024/01/03 05:43:37;;;;;;;11.77;1.83;;;;;;;;;;4975004;28;20480;-53
2024/01/03 05:46:06;;;;;;;14.15;1.63;;;;;;;;;;4963518;28;20046;-50
2024/01/03 05:48:34;;;;;;;9.13;1.00;;;;;;;;;;4955132;28;20042;-52
2024/01/03 05:51:05;;;;;;;5.33;0.57;;;;;;;;;;4966331;28;20052;-48
2024/01/03 05:53:33;;;;;;;11.98;1.38;;;;;;;;;;4968518;28;20056;-51
2024/01/03 05:56:00;;;;;;;8.32;0.50;;;;;;;;;;4971834;28;20411;-54
2024/01/03 05:58:28;;;;;;;5.43;0.50;;;;;;;;;;4970332;28;20045;-53
2024/01/03 06:00:56;;;;;;;8.73;0.68;;;;;;;;;;4972586;28;20343;-51
2024/01/03 06:03:24;;;;;;;5.63;0.80;;;;;;;;;;4968537;28;20145;-54
2024/01/03 06:05:54;;;;;;;5.50;0.35;;;;;;;;;;4970967;28;20037;-53
2024/01/03 06:08:23;;;;;;;9.40;1.25;;;;;;;;;;4970909;28;20084;-53
2024/01/03 06:10:50;;;;;;;12.38;1.08;;;;;;;;;;4962576;28;20482;-51
2024/01/03 06:13:19;;;;;;;8.23;0.60;;;;;;;;;;4963964;28;20046;-48
2024/01/03 06:15:47;;;;;;;9.73;1.10;;;;;;;;;;4979072;28;20061;-53
2024/01/03 06:18:16;;;;;;;15.13;0.90;;;;;;;;;;4964952;28;20133;-56
2024/01/03 06:21:02;;;;;;;10.75;1.05;;;;;;;;;;4981813;28;20042;-49
2024/01/03 06:23:31;;;;;;;10.70;1.88;;;;;;;;;;4961590;28;20046;-50
2024/01/03 06:25:59;;;;;;;10.82;1.55;;;;;;;;;;4972060;28;20064;-50
2024/01/03 06:28:26;;;;;;;10.70;1.13;;;;;;;;;;4973925;28;20266;-52
2024/01/03 06:30:54;;;;;;;15.20;1.10;;;;;;;;;;4968764;28;20046;-51
2024/01/03 06:33:22;;;;;;;15.05;1.60;;;;;;;;;;4935369;28;20220;-52
2024/01/03 06:35:50;;;;;;;14.30;1.80;;;;;;;;;;4914097;28;21498;-54
2024/01/03 06:38:18;;;;;;;15.43;1.38;;;;;;;;;;4968407;28;20496;-49
2024/01/03 06:40:47;;;;;;;19.17;2.10;;;;;;;;;;4963306;28;20073;-56
2024/01/03 06:43:15;;;;;;;14.40;1.70;;;;;;;;;;4982866;28;20042;-51
2024/01/03 06:45:43;;;;;;;16.27;1.98;;;;;;;;;;4961802;28;20050;-52
2024/01/03 06:48:10;;;;;;;22.05;1.90;;;;;;;;;;4977684;28;20049;-52
2024/01/03 06:50:39;;;;;;;15.75;2.38;;;;;;;;;;4959965;28;20046;-55
2024/01/03 06:53:07;;;;;;;19.60;1.43;;;;;;;;;;4970039;28;20409;-52
2024/01/03 06:55:35;;;;;;;14.35;1.15;;;;;;;;;;4977748;28;20391;-50
2024/01/03 06:58:04;;;;;;;18.30;2.33;;;;;;;;;;4968218;28;20054;-54
2024/01/03 07:00:36;;;;;;;18.58;1.75;;;;;;;;;;4979806;28;20092;-52
2024/01/03 07:03:06;;;;;;;13.88;1.52;;;;;;;;;;4971533;28;20042;-52
2024/01/03 07:05:34;;;;;;;24.37;2.40;;;;;;;;;;4964002;28;20046;-49
2024/01/03 07:08:02;;;;;;;16.75;1.50;;;;;;;;;;4979690;28;20133;-51
2024/01/03 07:10:31;;;;;;;16.15;1.70;;;;;;;;;;4968651;28;20169;-52
2024/01/03 07:12:59;;;;;;;13.65;1.63;;;;;;;;;;4968849;28;20042;-51
2024/01/03 07:15:28;;;;;;;11.80;1.08;;;;;;;;;;4964227;28;20076;-51
2024/01/03 07:17:56;;;;;;;16.93;1.90;;;;;;;;;;4978640;28;20045;-54
2024/01/03 07:20:24;;;;;;;15.15;1.85;;;;;;;;;;4952859;28;20068;-52
2024/01/03 07:22:52;;;;;;;13.73;2.30;;;;;;;;;;4974512;28;20045;-52
2024/01/03 07:25:20;;;;;;;12.80;1.08;;;;;;;;;;4967991;28;20408;-52
2024/01/03 07:27:48;;;;;;;15.48;1.42;;;;;;;;;;4969669;28;20827;-50
2024/01/03 07:30:16;;;;;;;12.83;1.63;;;;;;;;;;4967596;28;20072;-54
2024/01/03 07:32:45;;;;;;;8.95;0.68;;;;;;;;;;4902166;28;20169;-52
2024/01/03 07:35:13;;;;;;;9.88;0.90;;;;;;;;;;4918197;28;20073;-53
2024/01/03 07:37:41;;;;;;;9.93;1.05;;;;;;;;;;4964411;28;20038;-55
2024/01/03 07:40:09;;;;;;;10.98;1.42;;;;;;;;;;4969788;28;20347;-54
2024/01/03 07:42:37;;;;;;;8.80;0.93;;;;;;;;;;4971459;28;20048;-54
2024/01/03 07:45:06;;;;;;;10.32;1.00;;;;;;;;;;4977470;28;20059;-54
2024/01/03 07:47:34;;;;;;;12.60;1.70;;;;;;;;;;4967095;28;20077;-55
2024/01/03 07:50:03;;;;;;;10.27;1.05;;;;;;;;;;4976807;28;20061;-54
2024/01/03 07:52:33;;;;;;;12.30;1.33;;;;;;;;;;4977641;28;20041;-53
2024/01/03 07:55:01;;;;;;;10.10;1.73;;;;;;;;;;4982100;28;20045;-53
2024/01/03 07:57:29;;;;;;;15.23;2.03;;;;;;;;;;4972275;28;20058;-56
2024/01/03 07:59:56;;;;;;;10.48;1.35;;;;;;;;;;4975946;28;20034;-51
2024/01/03 08:02:24;;;;;;;7.18;1.00;;;;;;;;;;4959490;28;20084;-51
2024/01/03 08:04:52;;;;;;;11.85;0.95;;;;;;;;;;4974207;28;20069;-56
2024/01/03 08:07:21;;;;;;;10.23;0.87;;;;;;;;;;4972393;28;20412;-55
2024/01/03 08:09:53;;;;;;;13.67;1.00;;;;;;;;;;4614588;28;9999748;-51
2024/01/03 08:12:21;;;;;;;9.80;1.80;;;;;;;;;;4949280;28;20287;-49
2024/01/03 08:14:49;;;;;;;12.40;1.33;;;;;;;;;;4966064;28;20606;-53
2024/01/03 08:17:17;;;;;;;18.45;1.42;;;;;;;;;;4950958;28;20085;-52
2024/01/03 08:19:45;;;;;;;13.77;1.73;;;;;;;;;;4976699;28;20053;-53
2024/01/03 08:22:13;;;;;;;15.15;1.77;;;;;;;;;;4957741;28;20457;-54
2024/01/03 08:24:42;;;;;;;19.77;1.77;;;;;;;;;;4970173;28;20054;-49
2024/01/03 08:27:10;;;;;;;22.92;1.77;;;;;;;;;;4970436;28;20366;-53
2024/01/03 08:29:39;;;;;;;12.75;1.15;;;;;;;;;;4975334;28;20528;-54
2024/01/03 08:32:07;;;;;;;23.00;1.33;;;;;;;;;;4949287;28;20493;-49
2024/01/03 08:34:35;;;;;;;10.60;1.58;;;;;;;;;;4871680;28;20485;-54
2024/01/03 08:37:03;;;;;;;12.03;1.70;;;;;;;;;;4960869;28;20131;-53
2024/01/03 08:39:31;;;;;;;16.65;1.92;;;;;;;;;;4971141;28;20053;-52
2024/01/03 08:42:00;;;;;;;19.70;1.58;;;;;;;;;;4957061;28;20054;-49
2024/01/03 08:44:29;;;;;;;17.50;1.30;;;;;;;;;;4959216;28;20038;-49
2024/01/03 08:46:57;;;;;;;11.75;1.80;;;;;;;;;;4957804;28;20046;-54
2024/01/03 08:49:25;;;;;;;19.53;2.03;;;;;;;;;;4978647;28;20490;-51
2024/01/03 08:51:55;;;;;;;20.40;2.33;;;;;;;;;;4962201;28;20053;-52
2024/01/03 08:54:24;;;;;;;15.25;1.92;;;;;;;;;;4975816;28;20045;-55
2024/01/03 08:56:52;;;;;;;18.07;1.83;;;;;;;;;;4286107;28;10000132;-54
2024/01/03 08:59:22;;;;;;;18.55;1.70;;;;;;;;;;4952693;28;20761;-58
2024/01/03 09:01:51;;;;;;;15.57;2.10;;;;;;;;;;4980518;28;20130;-56
2024/01/03 09:04:20;;;;;;;14.15;1.25;;;;;;;;;;4953570;28;20361;-57
2024/01/03 09:06:55;;;;;;;15.30;2.25;;;;;;;;;;4910572;28;20071;-58
2024/01/03 09:09:26;;;;;;;18.53;1.37;;;;;;;;;;4909143;28;20911;-58
2024/01/03 09:11:55;;;;;;;7.13;0.70;;;;;;;;;;4954551;28;20548;-57
2024/01/03 09:14:24;;;;;;;15.25;1.35;;;;;;;;;;4947297;28;20080;-58
2024/01/03 09:16:52;;;;;;;14.02;0.93;;;;;;;;;;4954786;28;20396;-57
2024/01/03 09:19:19;;;;;;;15.23;1.73;;;;;;;;;;4977883;28;20034;-58
2024/01/03 09:21:50;;;;;;;8.40;1.00;;;;;;;;;;4953464;28;20034;-58
2024/01/03 09:24:18;;;;;;;9.93;0.80;;;;;;;;;;4965084;28;21079;-57
2024/01/03 09:26:47;;;;;;;9.82;0.90;;;;;;;;;;4951176;28;20045;-57
2024/01/03 09:29:14;;;;;;;13.55;0.95;;;;;;;;;;4961410;28;20130;-57
2024/01/03 09:31:44;;;;;;;8.60;1.58;;;;;;;;;;4967987;28;20044;-57
2024/01/03 09:34:12;;;;;;;8.70;0.50;;;;;;;;;;4862395;28;20042;-57
2024/01/03 09:36:40;;;;;;;10.00;0.73;;;;;;;;;;4956566;28;20048;-58
2024/01/03 09:39:09;;;;;;;8.57;0.68;;;;;;;;;;4957235;28;20046;-57
2024/01/03 09:41:38;;;;;;;12.02;1.23;;;;;;;;;;4959301;28;20056;-55
2024/01/03 09:44:08;;;;;;;9.27;0.70;;;;;;;;;;4968728;28;20471;-57
2024/01/03 09:46:55;;;;;;;7.70;0.40;;;;;;;;;;4974160;28;20092;-57
2024/01/03 09:49:22;;;;;;;11.90;0.70;;;;;;;;;;4923867;28;20317;-58
2024/01/03 09:51:52;;;;;;;5.47;0.50;;;;;;;;;;4938720;28;20061;-55
2024/01/03 09:54:20;;;;;;;8.38;0.70;;;;;;;;;;4965877;28;20054;-58
2024/01/03 09:56:48;;;;;;;7.25;0.60;;;;;;;;;;4979935;28;20034;-56
2024/01/03 09:59:17;;;;;;;8.13;0.77;;;;;;;;;;4959504;28;20065;-57
2024/01/03 10:01:56;;;;;;;9.05;0.57;;;;;;;;;;4967459;28;20045;-57
2024/01/03 10:04:23;;;;;;;7.55;0.85;;;;;;;;;;4966392;28;20774;-57
2024/01/03 10:06:52;;;;;;;10.02;0.68;;;;;;;;;;4970356;28;20342;-55
2024/01/03 10:09:21;;;;;;;5.63;0.40;;;;;;;;;;4953788;28;20124;-55
2024/01/03 10:11:51;;;;;;;5.63;0.50;;;;;;;;;;4965730;28;20038;-55
2024/01/03 10:14:19;;;;;;;9.02;0.65;;;;;;;;;;4965545;28;20057;-57
2024/01/03 10:16:48;;;;;;;3.90;0.40;;;;;;;;;;4957865;28;20034;-56
2024/01/03 10:19:18;;;;;;;4.50;0.43;;;;;;;;;;4992526;28;20116;-56
2024/01/03 10:21:47;;;;;;;5.38;0.57;;;;;;;;;;4956227;28;20030;-56
2024/01/03 10:24:15;;;;;;;3.23;0.40;;;;;;;;;;4967596;28;20050;-56
2024/01/03 10:26:43;;;;;;;4.65;0.57;;;;;;;;;;4960814;28;20053;-57
2024/01/03 10:29:11;;;;;;;6.32;0.43;;;;;;;;;;4979622;28;20105;-57
2024/01/03 10:31:40;;;;;;;5.10;0.38;;;;;;;;;;4956762;28;20049;-54
2024/01/03 10:34:15;;;;;;;6.35;0.57;;;;;;;;;;4860742;28;20046;-57
2024/01/03 10:36:45;;;;;;;4.50;0.30;;;;;;;;;;4970391;28;20049;-56
2024/01/03 10:39:15;;;;;;;4.18;0.35;;;;;;;;;;4952485;28;20042;-55
2024/01/03 10:41:44;;;;;;;3.90;0.28;;;;;;;;;;4981574;28;20586;-57
2024/01/03 10:44:14;;;;;;;5.55;0.60;;;;;;;;;;4977623;28;20362;-56
2024/01/03 10:46:43;;;;;;;4.93;0.47;;;;;;;;;;4969899;28;20049;-57
2024/01/03 10:49:12;;;;;;;6.27;0.73;;;;;;;;;;4964644;28;20052;-57
2024/01/03 10:52:00;;;;;;;2.78;0.35;;;;;;;;;;4961118;28;20880;-55
2024/01/03 10:54:33;;;;;;;5.65;0.43;;;;;;;;;;4971895;28;20450;-58
2024/01/03 10:57:00;;;;;;;3.40;0.22;;;;;;;;;;4971966;28;20675;-55
2024/01/03 10:59:32;;;;;;;8.37;0.50;;;;;;;;;;4624206;28;10000363;-57
2024/01/03 11:02:02;;;;;;;5.07;0.88;;;;;;;;;;4969032;28;20308;-57
2024/01/03 11:04:32;;;;;;;4.80;0.30;;;;;;;;;;4966100;28;20033;-56
2024/01/03 11:07:02;;;;;;;4.97;0.50;;;;;;;;;;4963569;28;20058;-56
2024/01/03 11:09:32;;;;;;;3.38;0.40;;;;;;;;;;4956478;28;20069;-56
2024/01/03 11:12:06;;;;;;;5.20;0.73;;;;;;;;;;4964012;28;20373;-56
2024/01/03 11:14:35;;;;;;;7.72;0.50;;;;;;;;;;4978576;28;20052;-56
2024/01/03 11:17:03;;;;;;;4.43;0.40;;;;;;;;;;4978571;28;20049;-57
2024/01/03 11:19:31;;;;;;;3.38;0.45;;;;;;;;;;4977874;28;20052;-56
2024/01/03 11:22:01;;;;;;;9.30;0.68;;;;;;;;;;4956533;28;20326;-57
2024/01/03 11:24:56;;;;;;;5.47;0.63;;;;;;;;;;4958841;28;20526;-52
2024/01/03 11:27:25;;;;;;;8.20;0.60;;;;;;;;;;4968551;28;20056;-56
2024/01/03 11:29:54;;;;;;;12.00;0.90;;;;;;;;;;4951735;28;20046;-56
2024/01/03 11:32:27;;;;;;;7.97;0.70;;;;;;;;;;4924655;28;20103;-57
2024/01/03 11:34:54;;;;;;;7.45;0.40;;;;;;;;;;4907125;28;20057;-54
2024/01/03 11:37:33;;;;;;;4.05;0.35;;;;;;;;;;4979225;28;20034;-55
2024/01/03 11:40:03;;;;;;;7.60;0.55;;;;;;;;;;4966984;28;20053;-54
2024/01/03 11:42:32;;;;;;;7.77;0.63;;;;;;;;;;4971361;28;20054;-57
2024/01/03 11:45:05;;;;;;;10.48;1.00;;;;;;;;;;4963314;28;20034;-57
2024/01/03 11:47:34;;;;;;;8.10;1.00;;;;;;;;;;4970043;28;20042;-56
2024/01/03 11:50:04;;;;;;;8.35;0.80;;;;;;;;;;4970151;28;20053;-54
2024/01/03 11:52:35;;;;;;;7.90;0.82;;;;;;;;;;4971722;28;20807;-57
2024/01/03 11:55:05;;;;;;;7.07;0.83;;;;;;;;;;4979298;28;20492;-55
2024/01/03 11:57:36;;;;;;;7.85;1.05;;;;;;;;;;4970309;28;20056;-54
2024/01/03 12:00:05;;;;;;;13.90;1.13;;;;;;;;;;4971416;28;20045;-57
2024/01/03 12:02:33;;;;;;;7.07;0.68;;;;;;;;;;4960829;28;20052;-57
2024/01/03 12:05:01;;;;;;;12.90;1.13;;;;;;;;;;4967732;28;20068;-55
2024/01/03 12:07:30;;;;;;;10.90;1.00;;;;;;;;;;4968814;28;20045;-57
2024/01/03 12:09:58;;;;;;;8.02;1.02;;;;;;;;;;4966390;28;20050;-54
2024/01/03 12:12:26;;;;;;;10.07;0.52;;;;;;;;;;4981856;28;20034;-55
2024/01/03 12:14:56;;;;;;;7.35;0.88;;;;;;;;;;4962974;28;20034;-54
2024/01/03 12:17:24;;;;;;;12.07;1.08;;;;;;;;;;4948810;28;20050;-56
2024/01/03 12:19:52;;;;;;;11.43;1.00;;;;;;;;;;4952492;28;20048;-57
2024/01/03 12:22:23;;;;;;;10.68;0.95;;;;;;;;;;4946547;28;20046;-55
2024/01/03 12:24:51;;;;;;;10.38;1.08;;;;;;;;;;4963841;28;20121;-56
2024/01/03 12:27:23;;;;;;;12.00;1.15;;;;;;;;;;4609001;28;10000664;-54
2024/01/03 12:29:52;;;;;;;16.30;2.38;;;;;;;;;;4958488;28;20484;-54
2024/01/03 12:32:29;;;;;;;8.30;0.57;;;;;;;;;;4936317;28;20042;-55
2024/01/03 12:35:01;;;;;;;3.35;0.40;;;;;;;;;;4904678;28;20038;-56
2024/01/03 12:37:29;;;;;;;7.15;0.60;;;;;;;;;;4958417;28;20894;-54
2024/01/03 12:39:57;;;;;;;13.07;0.80;;;;;;;;;;4955161;28;20135;-56
2024/01/03 12:42:25;;;;;;;10.93;0.70;;;;;;;;;;4965714;28;20136;-55
2024/01/03 12:45:06;;;;;;;10.30;0.70;;;;;;;;;;4968176;28;20858;-54
2024/01/03 12:47:36;;;;;;;10.15;1.00;;;;;;;;;;4965143;28;20408;-55
2024/01/03 12:50:05;;;;;;;9.75;0.98;;;;;;;;;;4282949;28;10020738;-55
2024/01/03 12:52:34;;;;;;;11.77;0.90;;;;;;;;;;4968688;28;20394;-57
2024/01/03 12:55:02;;;;;;;7.95;1.08;;;;;;;;;;4959700;28;20665;-57
2024/01/03 12:57:30;;;;;;;10.90;1.23;;;;;;;;;;4980908;28;20057;-56
2024/01/03 12:59:58;;;;;;;5.43;0.75;;;;;;;;;;4956878;28;20105;-56
2024/01/03 13:02:28;;;;;;;11.00;1.38;;;;;;;;;;4964566;28;20500;-56
2024/01/03 13:04:58;;;;;;;17.88;1.20;;;;;;;;;;4964878;28;20049;-56
2024/01/03 13:07:26;;;;;;;11.50;1.70;;;;;;;;;;4980458;28;20052;-56
2024/01/03 13:09:55;;;;;;;13.30;1.23;;;;;;;;;;4974537;28;20057;-56
2024/01/03 13:12:40;;;;;;;12.55;1.70;;;;;;;;;;4968173;28;20046;-57
2024/01/03 13:15:08;;;;;;;12.27;1.50;;;;;;;;;;4937749;28;20652;-56
2024/01/03 13:17:43;;;;;;;12.45;1.00;;;;;;;;;;4965238;28;20140;-57
2024/01/03 13:20:29;;;;;;;9.57;1.17;;;;;;;;;;4931033;28;20253;-55
2024/01/03 13:22:57;;;;;;;11.07;1.37;;;;;;;;;;4963570;28;20431;-57
2024/01/03 13:25:26;;;;;;;14.55;1.67;;;;;;;;;;4982902;28;20049;-57
2024/01/03 13:27:53;;;;;;;9.90;1.02;;;;;;;;;;4959391;28;20041;-57
2024/01/03 13:30:21;;;;;;;10.68;1.13;;;;;;;;;;4975109;28;20073;-56
2024/01/03 13:32:50;;;;;;;11.50;1.23;;;;;;;;;;4914448;28;20664;-56
2024/01/03 13:35:19;;;;;;;9.73;1.60;;;;;;;;;;4923801;28;20046;-54
2024/01/03 13:37:48;;;;;;;10.27;0.90;;;;;;;;;;4958135;28;20129;-55
2024/01/03 13:40:22;;;;;;;11.80;1.67;;;;;;;;;;4978298;28;20046;-56
2024/01/03 13:42:53;;;;;;;10.15;1.30;;;;;;;;;;4979869;28;20073;-57
2024/01/03 13:45:20;;;;;;;17.13;1.48;;;;;;;;;;4965239;28;20048;-58
2024/01/03 13:47:49;;;;;;;6.43;0.63;;;;;;;;;;4978907;28;20038;-56
2024/01/03 13:50:18;;;;;;;10.48;1.15;;;;;;;;;;4958168;28;20479;-57
2024/01/03 13:52:46;;;;;;;11.98;0.98;;;;;;;;;;4973238;28;20041;-57
2024/01/03 13:55:14;;;;;;;10.90;1.00;;;;;;;;;;4942935;28;20026;-58
2024/01/03 13:57:42;;;;;;;6.75;1.40;;;;;;;;;;4943238;28;20045;-55
2024/01/03 14:00:10;;;;;;;7.23;1.40;;;;;;;;;;4960059;28;20042;-56
2024/01/03 14:02:40;;;;;;;11.20;1.60;;;;;;;;;;4959536;28;20046;-55
2024/01/03 14:05:10;;;;;;;14.43;1.75;;;;;;;;;;4964301;28;20144;-57
2024/01/03 14:07:42;;;;;;;9.13;1.10;;;;;;;;;;4963040;28;20588;-57
2024/01/03 14:10:11;;;;;;;8.77;1.25;;;;;;;;;;4978123;28;20042;-56
2024/01/03 14:12:39;;;;;;;6.17;0.67;;;;;;;;;;4971480;28;20065;-56
2024/01/03 14:15:10;;;;;;;12.73;1.63;;;;;;;;;;4955586;28;20084;-55
2024/01/03 14:17:38;;;;;;;7.75;0.55;;;;;;;;;;4978585;28;21090;-56
2024/01/03 14:20:12;;;;;;;9.73;1.58;;;;;;;;;;4961117;28;20053;-56
2024/01/03 14:22:42;;;;;;;6.30;0.85;;;;;;;;;;4977659;28;20357;-58
2024/01/03 14:25:10;;;;;;;9.63;1.00;;;;;;;;;;4944698;28;20046;-57
2024/01/03 14:27:39;;;;;;;11.48;0.82;;;;;;;;;;4947068;28;20445;-56
2024/01/03 14:30:09;;;;;;;7.18;1.13;;;;;;;;;;4979921;28;20042;-54
2024/01/03 14:32:37;;;;;;;10.68;1.17;;;;;;;;;;4898248;28;30080;-56
2024/01/03 14:35:06;;;;;;;10.65;1.20;;;;;;;;;;4917855;28;20034;-56
2024/01/03 14:37:34;;;;;;;11.93;1.63;;;;;;;;;;4959531;28;20807;-55
2024/01/03 14:40:05;;;;;;;9.43;1.23;;;;;;;;;;4975093;28;20038;-56
2024/01/03 14:42:34;;;;;;;13.85;2.08;;;;;;;;;;4951027;28;20129;-57
2024/01/03 14:45:03;;;;;;;13.27;1.30;;;;;;;;;;4967063;28;20038;-56